Contact Us:
Email: info@sawbill.com
Phone: (218)663-7150
Fax: (218)663-7980
Mail: 4620 Sawbill Trail
Box 2129
Tofte, MN 55615


Powered by
Movable Type 3.15
 
Sawbill Weather History Archives: May 2003
Current Sawbill Weather History | « April 2003 | June 2003 »


Date

High
Temperature

Low
Temperature

Barometric
Pressure

Relative
Humidity 7AM

9 AM
Temperature

Moisture

Snow

05/31/03 63 37 30.05 81% 45 0  
05/30/03 55 37 30.07 76% 37 .55"  
05/29/03 80 50 29.55 86% 55 .36"  
05/28/03 71 49 29.92 79% 50 0  
05/27/03 83 50 29.85 87% 58 0  
05/26/03 81 44 30.19 67% 50 0  
05/25/03 76 43 30.26 65% 50 0  
05/24/03 77 41 30.15 24% 43 0  
05/23/03 71 37 30.16 24% 40 0  
05/22/03 61 28 30.30 29% 43 0  
05/21/03 65 36 30.25 27% 42 0  
05/20/03 60 34 30.35 79% 39 0  
05/19/03 62 39 30.14 81% 39 .8"  
05/18/03 69 48 29.98 73% 53 0  
05/17/03 75 40 30.15 85% 48 0  
05/16/03 74 41 30.17 76% 41 0  
05/15/03 74 41 30.15 66% 44 0  
05/14/03 77 41 30.08 52% 43 0  
05/13/03 76 41 29.94 77% 45 0  
05/12/03 69 41 30.01 73% 41 0  
05/11/03 48 40 29.88 53% 40 0  
05/10/03 51 41 29.42 87% 45 Trace  
05/09/03 49 41 29.67 86% 43 .8"  
05/08/03 69 43 29.80 34% 49 0  
05/07/03 70 38 30.11 80% 43 0  
05/06/03 69 38 30.00 60% 49 0  
05/05/03 66 41 29.87 65% 46 0  
05/04/03 64 34 29.75 45% 47 0  
05/03/03 65 33 30.00 55% 34 0  
05/02/03 59 28 30.17 30% 32 0  
05/01/03 61 24 30.17 66% 29 0  
 


Home I Trip Planning I Rentals and Outfitting I Reservations I Campgrounds I Sawbill Store I Sawbill News I Contact

© 1997 - 2017, Sawbill Canoe Outfitters, Inc. I Privacy Policy